createdAt,value
2022-12-18T00:00:10.844Z,11.20
2022-12-18T00:02:40.640Z,10.53
2022-12-18T00:05:09.619Z,10.60
2022-12-18T00:07:39.286Z,11.00
2022-12-18T00:10:08.558Z,10.07
2022-12-18T00:12:36.428Z,10.27
2022-12-18T00:15:04.929Z,10.63
2022-12-18T00:17:32.767Z,8.97
2022-12-18T00:20:02.264Z,11.40
2022-12-18T00:22:30.141Z,9.80
2022-12-18T00:24:59.526Z,9.00
2022-12-18T00:27:29.163Z,8.90
2022-12-18T00:29:58.258Z,8.50
2022-12-18T00:32:26.501Z,9.00
2022-12-18T00:34:55.456Z,7.33
2022-12-18T00:37:25.032Z,8.73
2022-12-18T00:39:53.190Z,9.33
2022-12-18T00:42:39.907Z,8.23
2022-12-18T00:45:12.638Z,8.57
2022-12-18T00:47:41.543Z,8.13
2022-12-18T00:50:10.630Z,7.27
2022-12-18T00:52:40.000Z,7.03
2022-12-18T00:55:08.994Z,7.03
2022-12-18T00:57:36.922Z,6.90
2022-12-18T01:00:06.042Z,7.17
2022-12-18T01:02:35.086Z,6.23
2022-12-18T01:05:03.349Z,5.90
2022-12-18T01:07:31.618Z,6.57
2022-12-18T01:10:02.368Z,6.23
2022-12-18T01:12:30.496Z,6.03
2022-12-18T01:14:58.694Z,6.13
2022-12-18T01:17:27.031Z,5.73
2022-12-18T01:19:55.951Z,5.73
2022-12-18T01:22:23.956Z,5.77
2022-12-18T01:24:52.009Z,5.93
2022-12-18T01:27:21.380Z,5.67
2022-12-18T01:29:49.263Z,6.33
2022-12-18T01:32:17.300Z,5.50
2022-12-18T01:34:45.582Z,5.77
2022-12-18T01:37:13.816Z,5.77
2022-12-18T01:39:41.983Z,5.07
2022-12-18T01:42:14.583Z,5.20
2022-12-18T01:45:08.097Z,5.13
2022-12-18T01:47:40.452Z,4.87
2022-12-18T01:50:12.400Z,5.00
2022-12-18T01:52:43.019Z,4.80
2022-12-18T01:55:13.019Z,5.00
2022-12-18T01:57:42.276Z,4.67
2022-12-18T02:00:14.677Z,4.77
2022-12-18T02:02:43.688Z,4.50
2022-12-18T02:05:13.681Z,4.63
2022-12-18T02:07:52.020Z,4.70
2022-12-18T02:10:26.810Z,4.50
2022-12-18T02:13:02.629Z,4.03
2022-12-18T02:15:37.085Z,4.63
2022-12-18T02:18:11.413Z,4.57
2022-12-18T02:20:46.239Z,4.57
2022-12-18T02:23:26.520Z,3.87
2022-12-18T02:26:13.957Z,4.03
2022-12-18T02:28:46.445Z,3.93
2022-12-18T02:31:19.222Z,4.17
2022-12-18T02:33:47.698Z,3.57
2022-12-18T02:36:17.664Z,3.67
2022-12-18T02:38:47.744Z,3.90
2022-12-18T02:41:20.576Z,3.50
2022-12-18T02:43:49.474Z,3.53
2022-12-18T02:46:32.329Z,3.73
2022-12-18T02:49:09.428Z,3.17
2022-12-18T02:51:46.496Z,3.53
2022-12-18T02:54:25.734Z,3.80
2022-12-18T02:57:00.169Z,3.67
2022-12-18T02:59:34.650Z,3.60
2022-12-18T03:02:09.623Z,3.33
2022-12-18T03:04:42.017Z,3.47
2022-12-18T03:07:17.857Z,3.90
2022-12-18T03:09:49.823Z,3.27
2022-12-18T03:12:26.861Z,3.30
2022-12-18T03:15:00.341Z,3.60
2022-12-18T03:17:32.468Z,3.87
2022-12-18T03:20:10.980Z,3.20
2022-12-18T03:22:40.413Z,3.17
2022-12-18T03:25:11.787Z,3.20
2022-12-18T03:27:47.722Z,3.37
2022-12-18T03:30:17.310Z,3.47
2022-12-18T03:32:50.073Z,3.00
2022-12-18T03:35:23.919Z,3.20
2022-12-18T03:37:51.870Z,3.07
2022-12-18T03:40:20.454Z,3.00
2022-12-18T03:42:53.715Z,2.80
2022-12-18T03:45:27.296Z,3.13
2022-12-18T03:48:03.387Z,3.07
2022-12-18T03:50:39.290Z,3.27
2022-12-18T03:53:20.322Z,3.30
2022-12-18T03:55:50.533Z,2.73
2022-12-18T03:58:22.627Z,2.93
2022-12-18T04:00:52.905Z,3.20
2022-12-18T04:03:26.189Z,2.57
2022-12-18T04:05:57.552Z,2.90
2022-12-18T04:08:28.012Z,3.30
2022-12-18T04:10:55.804Z,2.87
2022-12-18T04:13:33.931Z,2.90
2022-12-18T04:16:02.415Z,2.83
2022-12-18T04:18:30.760Z,3.13
2022-12-18T04:20:58.619Z,2.63
2022-12-18T04:23:26.499Z,2.80
2022-12-18T04:25:54.599Z,2.60
2022-12-18T04:28:22.947Z,3.00
2022-12-18T04:30:52.513Z,3.00
2022-12-18T04:33:20.692Z,3.30
2022-12-18T04:35:48.583Z,2.80
2022-12-18T04:38:16.869Z,2.73
2022-12-18T04:40:45.761Z,2.77
2022-12-18T04:43:13.909Z,3.07
2022-12-18T04:45:42.086Z,2.87
2022-12-18T04:48:11.438Z,3.40
2022-12-18T04:50:39.527Z,2.80
2022-12-18T04:53:09.284Z,3.13
2022-12-18T04:55:38.181Z,3.43
2022-12-18T04:58:06.972Z,2.97
2022-12-18T05:00:34.913Z,2.70
2022-12-18T05:03:03.325Z,2.50
2022-12-18T05:05:33.194Z,3.13
2022-12-18T05:08:03.268Z,2.90
2022-12-18T05:10:37.801Z,3.10
2022-12-18T05:13:06.512Z,2.93
2022-12-18T05:15:35.400Z,2.90
2022-12-18T05:18:04.372Z,3.10
2022-12-18T05:20:34.047Z,3.03
2022-12-18T05:23:02.032Z,3.20
2022-12-18T05:25:29.937Z,3.03
2022-12-18T05:27:58.109Z,2.80
2022-12-18T05:30:26.743Z,3.33
2022-12-18T05:32:54.676Z,3.10
2022-12-18T05:35:23.197Z,3.47
2022-12-18T05:37:53.124Z,3.20
2022-12-18T05:40:21.236Z,3.77
2022-12-18T05:42:50.073Z,3.47
2022-12-18T05:45:18.239Z,3.10
2022-12-18T05:47:46.085Z,3.00
2022-12-18T05:50:15.093Z,3.27
2022-12-18T05:52:43.097Z,3.60
2022-12-18T05:55:12.683Z,3.23
2022-12-18T05:57:40.499Z,3.20
2022-12-18T06:00:09.897Z,3.33
2022-12-18T06:02:38.093Z,3.63
2022-12-18T06:05:08.293Z,3.30
2022-12-18T06:07:36.575Z,3.60
2022-12-18T06:10:04.810Z,3.60
2022-12-18T06:12:35.168Z,3.60
2022-12-18T06:15:03.038Z,3.70
2022-12-18T06:17:31.408Z,3.63
2022-12-18T06:19:59.568Z,3.50
2022-12-18T06:22:29.281Z,3.90
2022-12-18T06:24:57.656Z,3.80
2022-12-18T06:27:26.156Z,3.77
2022-12-18T06:29:55.604Z,4.10
2022-12-18T06:32:23.599Z,4.07
2022-12-18T06:34:52.626Z,3.93
2022-12-18T06:37:20.612Z,3.73
2022-12-18T06:39:48.571Z,3.47
2022-12-18T06:42:16.667Z,3.63
2022-12-18T06:44:44.937Z,3.57
2022-12-18T06:47:14.603Z,3.90
2022-12-18T06:49:42.366Z,3.67
2022-12-18T06:52:10.452Z,4.20
2022-12-18T06:54:38.628Z,5.20
2022-12-18T06:57:07.519Z,5.27
2022-12-18T06:59:35.297Z,5.10
2022-12-18T07:02:03.204Z,4.70
2022-12-18T07:04:33.708Z,4.87
2022-12-18T07:07:01.562Z,4.90
2022-12-18T07:09:29.722Z,4.67
2022-12-18T07:11:57.672Z,4.00
2022-12-18T07:14:25.881Z,4.43
2022-12-18T07:16:55.376Z,4.60
2022-12-18T07:19:23.424Z,4.90
2022-12-18T07:21:53.827Z,4.97
2022-12-18T07:24:21.557Z,4.17
2022-12-18T07:26:49.656Z,4.40
2022-12-18T07:29:17.774Z,4.73
2022-12-18T07:31:46.063Z,4.10
2022-12-18T07:34:14.732Z,4.00
2022-12-18T07:36:43.092Z,4.70
2022-12-18T07:39:12.923Z,7.10
2022-12-18T07:41:46.675Z,15.23
2022-12-18T07:44:15.168Z,8.10
2022-12-18T07:46:43.152Z,5.37
2022-12-18T07:49:12.694Z,5.50
2022-12-18T07:51:41.843Z,5.40
2022-12-18T07:54:09.847Z,5.10
2022-12-18T07:56:39.843Z,5.87
2022-12-18T07:59:07.814Z,5.03
2022-12-18T08:01:36.179Z,4.60
2022-12-18T08:04:04.349Z,4.20
2022-12-18T08:06:32.902Z,4.13
2022-12-18T08:09:00.981Z,4.47
2022-12-18T08:11:30.028Z,4.50
2022-12-18T08:14:00.063Z,4.27
2022-12-18T08:16:28.944Z,4.03
2022-12-18T08:18:58.195Z,4.23
2022-12-18T08:21:28.352Z,4.50
2022-12-18T08:23:58.153Z,3.77
2022-12-18T08:26:27.535Z,4.00
2022-12-18T08:28:56.338Z,4.60
2022-12-18T08:31:26.862Z,3.90
2022-12-18T08:33:55.531Z,4.03
2022-12-18T08:36:24.365Z,4.07
2022-12-18T08:38:53.945Z,4.17
2022-12-18T08:41:22.347Z,4.47
2022-12-18T08:44:08.257Z,3.90
2022-12-18T08:46:40.201Z,4.00
2022-12-18T08:49:09.090Z,3.97
2022-12-18T08:51:37.547Z,4.20
2022-12-18T08:54:06.516Z,3.90
2022-12-18T08:56:35.191Z,3.90
2022-12-18T08:59:05.389Z,3.83
2022-12-18T09:01:34.275Z,4.57
2022-12-18T09:04:05.029Z,4.50
2022-12-18T09:06:34.593Z,4.30
2022-12-18T09:09:02.387Z,5.30
2022-12-18T09:11:32.300Z,4.53
2022-12-18T09:14:02.159Z,4.53
2022-12-18T09:16:33.077Z,4.47
2022-12-18T09:19:01.729Z,4.70
2022-12-18T09:21:34.283Z,4.50
2022-12-18T09:24:07.550Z,4.83
2022-12-18T09:26:36.549Z,4.70
2022-12-18T09:29:04.809Z,4.43
2022-12-18T09:31:32.784Z,4.30
2022-12-18T09:34:00.661Z,4.43
2022-12-18T09:36:29.230Z,4.80
2022-12-18T09:39:02.653Z,5.00
2022-12-18T09:41:54.480Z,4.60
2022-12-18T09:44:27.114Z,5.17
2022-12-18T09:47:02.369Z,4.30
2022-12-18T09:49:34.180Z,5.00
2022-12-18T09:52:07.213Z,4.33
2022-12-18T09:54:41.436Z,4.97
2022-12-18T09:57:15.976Z,4.20
2022-12-18T09:59:46.456Z,4.60
2022-12-18T10:02:19.555Z,4.30
2022-12-18T10:04:55.448Z,3.93
2022-12-18T10:07:30.560Z,4.70
2022-12-18T10:10:06.594Z,4.90
2022-12-18T10:12:43.455Z,4.23
2022-12-18T10:15:17.994Z,4.23
2022-12-18T10:17:52.927Z,4.33
2022-12-18T10:20:27.263Z,3.90
2022-12-18T10:23:02.418Z,4.30
2022-12-18T10:25:37.324Z,4.17
2022-12-18T10:28:12.894Z,4.33
2022-12-18T10:30:42.105Z,3.93
2022-12-18T10:33:14.073Z,4.37
2022-12-18T10:35:44.180Z,4.33
2022-12-18T10:38:25.153Z,4.03
2022-12-18T10:40:56.843Z,4.03
2022-12-18T10:43:27.317Z,4.73
2022-12-18T10:46:07.629Z,4.33
2022-12-18T10:48:38.799Z,4.00
2022-12-18T10:51:12.377Z,4.40
2022-12-18T10:53:44.059Z,4.03
2022-12-18T10:56:14.162Z,4.10
2022-12-18T10:58:43.376Z,4.10
2022-12-18T11:01:14.077Z,3.90
2022-12-18T11:03:44.392Z,3.97
2022-12-18T11:06:13.917Z,3.80
2022-12-18T11:08:43.760Z,4.03
2022-12-18T11:11:22.971Z,4.03
2022-12-18T11:14:02.669Z,3.77
2022-12-18T11:16:34.141Z,4.00
2022-12-18T11:19:21.705Z,4.00
2022-12-18T11:21:50.962Z,3.90
2022-12-18T11:24:24.804Z,3.60
2022-12-18T11:26:59.514Z,3.63
2022-12-18T11:29:34.286Z,3.33
2022-12-18T11:32:32.258Z,3.60
2022-12-18T11:35:06.103Z,6.57
2022-12-18T11:37:35.777Z,7.10
2022-12-18T11:40:09.115Z,6.23
2022-12-18T11:42:46.198Z,7.77
2022-12-18T11:45:27.969Z,5.40
2022-12-18T11:48:03.490Z,4.37
2022-12-18T11:50:43.733Z,4.67
2022-12-18T11:53:13.359Z,4.87
2022-12-18T11:55:48.439Z,4.90
2022-12-18T11:58:31.348Z,6.60
2022-12-18T12:01:16.117Z,6.30
2022-12-18T12:04:24.731Z,5.33
2022-12-18T12:07:03.418Z,6.73
2022-12-18T12:09:42.108Z,3.93
2022-12-18T12:12:27.021Z,4.77
2022-12-18T12:15:06.712Z,4.10
2022-12-18T12:17:40.517Z,5.47
2022-12-18T12:20:18.017Z,5.23
2022-12-18T12:22:54.318Z,4.97
2022-12-18T12:25:33.595Z,4.80
2022-12-18T12:28:15.641Z,4.03
2022-12-18T12:30:58.028Z,3.87
2022-12-18T12:33:38.759Z,4.00
2022-12-18T12:36:19.746Z,5.17
2022-12-18T12:38:52.532Z,5.40
2022-12-18T12:41:41.436Z,4.03
2022-12-18T12:44:17.141Z,4.00
2022-12-18T12:46:50.225Z,4.53
2022-12-18T12:49:20.371Z,3.63
2022-12-18T12:51:54.783Z,3.93
2022-12-18T12:54:26.914Z,3.67
2022-12-18T12:57:02.171Z,3.80
2022-12-18T12:59:41.157Z,4.73
2022-12-18T13:02:20.499Z,5.03
2022-12-18T13:04:55.751Z,4.10
2022-12-18T13:07:31.494Z,4.77
2022-12-18T13:10:27.199Z,5.73
2022-12-18T13:12:59.455Z,4.77
2022-12-18T13:15:41.232Z,4.60
2022-12-18T13:18:20.430Z,4.53
2022-12-18T13:23:43.633Z,9.83
2022-12-18T13:26:33.298Z,8.37
2022-12-18T13:29:03.356Z,5.80
2022-12-18T13:32:14.706Z,5.47
2022-12-18T13:34:47.044Z,6.20
2022-12-18T13:37:44.146Z,4.80
2022-12-18T13:40:59.697Z,5.20
2022-12-18T13:43:45.037Z,5.33
2022-12-18T13:46:22.558Z,4.50
2022-12-18T13:48:54.379Z,5.63
2022-12-18T13:51:25.690Z,4.90
2022-12-18T13:53:56.701Z,5.53
2022-12-18T13:56:28.580Z,6.80
2022-12-18T13:59:22.663Z,5.43
2022-12-18T14:01:56.757Z,3.80
2022-12-18T14:04:30.461Z,3.80
2022-12-18T14:07:04.934Z,3.63
2022-12-18T14:09:38.917Z,2.83
2022-12-18T14:12:27.085Z,3.27
2022-12-18T14:14:55.614Z,4.10
2022-12-18T14:17:25.797Z,3.33
2022-12-18T14:19:54.228Z,3.73
2022-12-18T14:22:28.864Z,3.87
2022-12-18T14:25:17.136Z,3.33
2022-12-18T14:27:47.759Z,3.50
2022-12-18T14:30:29.920Z,4.37
2022-12-18T14:33:05.915Z,3.70
2022-12-18T14:35:34.763Z,3.33
2022-12-18T14:38:23.287Z,4.10
2022-12-18T14:40:55.252Z,4.20
2022-12-18T14:43:23.705Z,3.93
2022-12-18T14:45:52.785Z,3.80
2022-12-18T14:48:24.192Z,4.37
2022-12-18T14:51:02.084Z,4.40
2022-12-18T14:53:40.923Z,4.20
2022-12-18T14:56:18.095Z,4.23
2022-12-18T14:58:51.286Z,7.03
2022-12-18T15:01:25.263Z,4.30
2022-12-18T15:03:54.075Z,3.70
2022-12-18T15:06:29.602Z,3.80
2022-12-18T15:08:59.892Z,3.50
2022-12-18T15:11:36.753Z,3.80
2022-12-18T15:14:40.209Z,3.70
2022-12-18T15:17:17.447Z,3.80
2022-12-18T15:19:47.017Z,3.97
2022-12-18T15:22:28.159Z,4.27
2022-12-18T15:24:59.125Z,3.97
2022-12-18T15:27:34.569Z,4.47
2022-12-18T15:30:20.529Z,4.67
2022-12-18T15:32:50.049Z,4.60
2022-12-18T15:35:21.404Z,4.53
2022-12-18T15:37:50.206Z,4.40
2022-12-18T15:40:22.955Z,4.57
2022-12-18T15:43:10.653Z,5.03
2022-12-18T15:45:38.615Z,4.50
2022-12-18T15:48:17.571Z,4.67
2022-12-18T15:50:45.631Z,5.60
2022-12-18T15:53:14.517Z,5.60
2022-12-18T15:56:01.576Z,4.70
2022-12-18T15:58:29.719Z,4.87
2022-12-18T16:01:01.374Z,5.30
2022-12-18T16:03:29.757Z,5.10
2022-12-18T16:05:59.447Z,4.70
2022-12-18T16:08:28.111Z,5.00
2022-12-18T16:10:57.526Z,5.60
2022-12-18T16:13:25.795Z,5.03
2022-12-18T16:15:53.697Z,5.53
2022-12-18T16:18:21.752Z,5.43
2022-12-18T16:20:49.586Z,5.70
2022-12-18T16:23:17.777Z,5.93
2022-12-18T16:25:45.734Z,5.73
2022-12-18T16:28:17.382Z,5.73
2022-12-18T16:30:45.951Z,5.20
2022-12-18T16:33:14.841Z,5.30
2022-12-18T16:35:42.766Z,5.97
2022-12-18T16:38:11.652Z,5.90
2022-12-18T16:41:00.874Z,5.33
2022-12-18T16:43:30.462Z,5.37
2022-12-18T16:46:00.965Z,5.80
2022-12-18T16:48:29.471Z,5.23
2022-12-18T16:51:03.578Z,5.77
2022-12-18T16:53:32.563Z,6.00
2022-12-18T16:56:01.390Z,5.60
2022-12-18T16:58:31.033Z,5.97
2022-12-18T17:00:58.784Z,5.87
2022-12-18T17:03:27.150Z,6.53
2022-12-18T17:05:55.146Z,6.30
2022-12-18T17:08:23.160Z,6.23
2022-12-18T17:10:51.039Z,6.40
2022-12-18T17:13:22.711Z,6.73
2022-12-18T17:15:55.381Z,6.63
2022-12-18T17:18:25.924Z,7.30
2022-12-18T17:20:53.651Z,8.67
2022-12-18T17:23:21.462Z,7.73
2022-12-18T17:25:49.240Z,6.90
2022-12-18T17:28:18.215Z,7.37
2022-12-18T17:30:47.673Z,7.30
2022-12-18T17:33:16.993Z,7.93
2022-12-18T17:35:45.012Z,8.43
2022-12-18T17:38:15.563Z,9.40
2022-12-18T17:40:46.592Z,9.30
2022-12-18T17:43:14.652Z,8.23
2022-12-18T17:45:43.535Z,8.03
2022-12-18T17:48:11.822Z,8.80
2022-12-18T17:50:41.809Z,9.60
2022-12-18T17:53:09.768Z,9.10
2022-12-18T17:55:37.466Z,9.33
2022-12-18T17:58:05.479Z,8.97
2022-12-18T18:00:33.707Z,9.27
2022-12-18T18:03:02.629Z,9.57
2022-12-18T18:05:30.961Z,9.53
2022-12-18T18:08:00.367Z,9.77
2022-12-18T18:10:28.574Z,9.07
2022-12-18T18:13:36.689Z,9.33
2022-12-18T18:16:06.804Z,9.63
2022-12-18T18:18:35.716Z,10.23
2022-12-18T18:21:06.627Z,10.10
2022-12-18T18:23:37.617Z,9.70
2022-12-18T18:26:10.683Z,10.77
2022-12-18T18:28:38.743Z,10.53
2022-12-18T18:31:07.785Z,9.63
2022-12-18T18:33:35.785Z,10.47
2022-12-18T18:36:04.227Z,10.20
2022-12-18T18:38:32.502Z,10.17
2022-12-18T18:41:04.183Z,9.67
2022-12-18T18:43:32.753Z,10.43
2022-12-18T18:46:02.220Z,10.27
2022-12-18T18:48:33.018Z,11.27
2022-12-18T18:51:05.010Z,12.10
2022-12-18T18:53:36.722Z,12.20
2022-12-18T18:56:45.419Z,10.77
2022-12-18T18:58:56.869Z,11.20
2022-12-18T19:01:26.060Z,12.43
2022-12-18T19:03:55.022Z,11.30
2022-12-18T19:06:25.351Z,12.73
2022-12-18T19:08:54.738Z,12.70
2022-12-18T19:11:43.858Z,16.93
2022-12-18T19:14:14.674Z,14.97
2022-12-18T19:16:43.682Z,13.13
2022-12-18T19:19:12.288Z,12.17
2022-12-18T19:21:40.377Z,12.20
2022-12-18T19:24:09.317Z,13.50
2022-12-18T19:26:39.777Z,13.17
2022-12-18T19:29:10.896Z,13.03
2022-12-18T19:31:39.265Z,13.37
2022-12-18T19:34:08.345Z,12.87
2022-12-18T19:36:38.160Z,13.17
2022-12-18T19:39:10.545Z,12.90
2022-12-18T19:41:41.087Z,12.33
2022-12-18T19:44:09.572Z,12.10
2022-12-18T19:46:41.635Z,13.43
2022-12-18T19:49:10.078Z,13.03
2022-12-18T19:51:38.400Z,12.33
2022-12-18T19:54:07.139Z,13.07
2022-12-18T19:56:36.649Z,12.70
2022-12-18T19:59:06.572Z,12.53
2022-12-18T20:01:34.953Z,13.10
2022-12-18T20:04:03.242Z,13.00
2022-12-18T20:06:34.018Z,12.23
2022-12-18T20:09:04.058Z,12.63
2022-12-18T20:11:32.893Z,14.03
2022-12-18T20:14:01.033Z,12.80
2022-12-18T20:16:31.142Z,12.87
2022-12-18T20:18:59.748Z,12.83
2022-12-18T20:21:28.156Z,12.70
2022-12-18T20:23:56.126Z,12.77
2022-12-18T20:26:24.947Z,12.70
2022-12-18T20:28:53.605Z,12.00
2022-12-18T20:31:21.606Z,13.37
2022-12-18T20:33:53.377Z,13.80
2022-12-18T20:36:25.972Z,12.50
2022-12-18T20:38:59.251Z,12.53
2022-12-18T20:41:33.523Z,13.20
2022-12-18T20:44:06.229Z,13.23
2022-12-18T20:46:39.174Z,11.83
2022-12-18T20:49:08.456Z,13.17
2022-12-18T20:51:37.517Z,13.33
2022-12-18T20:54:09.139Z,12.57
2022-12-18T20:56:39.512Z,13.50
2022-12-18T20:59:07.635Z,12.70
2022-12-18T21:01:35.583Z,13.17
2022-12-18T21:04:06.086Z,13.37
2022-12-18T21:06:35.765Z,13.30
2022-12-18T21:09:03.619Z,13.10
2022-12-18T21:11:50.780Z,13.63
2022-12-18T21:14:20.490Z,13.27
2022-12-18T21:16:48.842Z,13.33
2022-12-18T21:19:19.515Z,12.47
2022-12-18T21:21:48.784Z,13.43
2022-12-18T21:24:17.066Z,12.33
2022-12-18T21:26:46.307Z,11.90
2022-12-18T21:29:19.883Z,13.40
2022-12-18T21:31:50.096Z,12.20
2022-12-18T21:34:20.086Z,13.10
2022-12-18T21:36:50.535Z,13.33
2022-12-18T21:39:19.070Z,12.83
2022-12-18T21:42:06.900Z,12.87
2022-12-18T21:44:36.300Z,13.07
2022-12-18T21:47:21.908Z,13.10
2022-12-18T21:49:52.772Z,13.07
2022-12-18T21:52:29.504Z,12.90
2022-12-18T21:55:09.642Z,13.83
2022-12-18T21:57:39.033Z,13.10
2022-12-18T22:00:09.272Z,13.30
2022-12-18T22:02:39.520Z,12.97
2022-12-18T22:05:08.280Z,12.30
2022-12-18T22:07:38.550Z,12.97
2022-12-18T22:10:07.334Z,13.30
2022-12-18T22:12:43.705Z,14.03
2022-12-18T22:15:19.203Z,12.83
2022-12-18T22:17:50.769Z,14.27
2022-12-18T22:20:19.983Z,12.40
2022-12-18T22:22:51.830Z,12.93
2022-12-18T22:25:20.431Z,13.63
2022-12-18T22:28:08.181Z,13.40
2022-12-18T22:30:35.521Z,13.17
2022-12-18T22:33:03.955Z,12.97
2022-12-18T22:35:32.089Z,14.27
2022-12-18T22:38:01.373Z,13.07
2022-12-18T22:40:29.643Z,12.57
2022-12-18T22:42:57.864Z,13.13
2022-12-18T22:45:26.526Z,14.07
2022-12-18T22:47:54.654Z,13.20
2022-12-18T22:50:22.466Z,14.23
2022-12-18T22:52:50.398Z,14.57
2022-12-18T22:55:20.762Z,12.97
2022-12-18T22:57:49.282Z,12.93
2022-12-18T23:00:23.773Z,13.70
2022-12-18T23:02:59.236Z,13.70
2022-12-18T23:05:29.157Z,14.07
2022-12-18T23:07:56.984Z,13.30
2022-12-18T23:10:26.791Z,13.27
2022-12-18T23:12:55.082Z,13.93
2022-12-18T23:15:28.491Z,14.37
2022-12-18T23:17:58.163Z,13.67
2022-12-18T23:20:26.376Z,13.23
2022-12-18T23:22:54.364Z,13.33
2022-12-18T23:25:22.150Z,12.90
2022-12-18T23:27:52.340Z,13.23
2022-12-18T23:30:39.232Z,14.83
2022-12-18T23:33:07.016Z,13.23
2022-12-18T23:35:37.809Z,12.50
2022-12-18T23:38:05.652Z,13.13
2022-12-18T23:40:35.418Z,13.83
2022-12-18T23:43:05.110Z,12.77
2022-12-18T23:45:33.206Z,13.63
2022-12-18T23:48:03.268Z,13.03
2022-12-18T23:50:31.051Z,12.87
2022-12-18T23:53:05.275Z,13.53
2022-12-18T23:55:38.571Z,13.23
2022-12-18T23:58:08.689Z,13.40
